Terminal Aerodrome Forecast
Issued by NWS

Home | Current Version | Previous Version | Text Only | Print | Product List | Glossary On
Versions: 1 2 3 4 5 6 7 8 9 10 11 12 13 14 15 16 17 18
000
FTUS44 KBMX 051739
TAFTOI
TAF
KTOI 051739Z 0518/0618 33014G24KT P6SM FEW070
     FM060000 33009KT P6SM SKC
     FM060500 33003KT P6SM SKC
     FM061400 35012G19KT P6SM SKC=

USA.gov is the U.S. government's official web portal to all federal, state and local government web resources and services.